Aérodrome :
LOGIN :

S'inscrire | Disclaimer

   EN    FR    IT 

 










Légende :    VFR   VFR Marginal   IFR   IFR Intensif   IFR Très Intensif
Visi : 
Plafond : 
>= 8 km
>= 3000ft
5 à 8 km
1000 à 3000 ft
1500m à 5 km
500 à 1000 ft
800 à 1500m
200 à 500 ft
< 800m
< 200 ft
Symboles :   Orages  Brouillard  Fortes neiges  Fortes précipitations  Vent > 20 kt
SIGMETs :   Divers  Orages  Givrage  Turbulence  Onde Orograph.  Cendres Volcan.






- Altitude de l'aérodrome : 697 ft
- Code IATA : PEG


LIRZ - San Edigio Perugia

DERNIER METAR :
  • 050050Z AUTO 26003KT 190V350 9999 NCD 05/M01 Q1020

METARs EXPIRÉS :
  • 042350Z AUTO 34003KT 310V020 9999 NCD 06/M01 Q1020
  • 042250Z AUTO 28004KT 250V320 9999 NCD 06/M01 Q1020
  • 042150Z AUTO 28003KT 250V330 9999 NCD 10/M01 Q1020

TAF TAF LIRZ
Valide du 04 à 18h jusqu'au 05 à 18h UTC


041700Z 0418/0518 VRB04KT CAVOK
BECMG 0504/0506 03015KT



MET'MAP, la Météo Aéronautique d'un coup d'oeil ! - Copyright ORBIFLY Décembre 2007 - Disclaimer

ORBIFLY MET'MAP TEAM :

Programmation & Développement : Alexandra Zaïnal
Sur une idée originale de : Baudouin d'Aumeries
Assistance à la programmation : Marc-Olivier Méhu
Soutien technique & logistique : Manuel Goepfert

Contact : metmap@orbifly.com




SOURCES & CREDITS :

   NOAA